createdAt,value
2018-02-03T00:00:07.850Z,99256.49
2018-02-03T00:02:35.439Z,99256.11
2018-02-03T00:05:03.048Z,99243.88
2018-02-03T00:07:30.594Z,99247.91
2018-02-03T00:09:58.218Z,99228.27
2018-02-03T00:12:25.754Z,99226.11
2018-02-03T00:14:53.440Z,99229.63
2018-02-03T00:17:21.013Z,99243.69
2018-02-03T00:19:48.627Z,99251.34
2018-02-03T00:22:16.173Z,99249.60
2018-02-03T00:24:43.746Z,99231.64
2018-02-03T00:27:11.323Z,99208.44
2018-02-03T00:29:38.894Z,99208.95
2018-02-03T00:32:06.470Z,99201.58
2018-02-03T00:34:34.015Z,99216.27
2018-02-03T00:37:01.602Z,99213.55
2018-02-03T00:39:29.138Z,99211.81
2018-02-03T00:41:56.718Z,99208.77
2018-02-03T00:44:24.990Z,99200.52
2018-02-03T00:46:52.534Z,99182.17
2018-02-03T00:49:20.122Z,99159.02
2018-02-03T00:51:47.654Z,99155.69
2018-02-03T00:54:15.223Z,99182.84
2018-02-03T00:56:42.806Z,99191.27
2018-02-03T00:59:11.036Z,99200.00
2018-02-03T01:01:39.559Z,99196.91
2018-02-03T01:04:07.089Z,99198.64
2018-02-03T01:06:34.670Z,99184.72
2018-02-03T01:09:02.242Z,99177.31
2018-02-03T01:11:29.823Z,99166.38
2018-02-03T01:13:57.365Z,99176.89
2018-02-03T01:16:24.954Z,99176.51
2018-02-03T01:18:52.503Z,99159.48
2018-02-03T01:21:20.038Z,99162.13
2018-02-03T01:23:47.617Z,99170.42
2018-02-03T01:26:15.205Z,99170.05
2018-02-03T01:28:42.815Z,99162.72
2018-02-03T01:31:10.392Z,99134.28
2018-02-03T01:33:37.975Z,99133.91
2018-02-03T01:36:05.670Z,99151.62
2018-02-03T01:38:33.239Z,99158.66
2018-02-03T01:41:00.805Z,99159.09
2018-02-03T01:43:28.382Z,99147.73
2018-02-03T01:45:55.983Z,99122.47
2018-02-03T01:48:23.516Z,99122.89
2018-02-03T01:50:51.051Z,99128.20
2018-02-03T01:53:18.634Z,99123.50
2018-02-03T01:55:46.178Z,99120.09
2018-02-03T01:58:13.766Z,99139.82
2018-02-03T02:00:41.366Z,99131.10
2018-02-03T02:03:08.911Z,99116.70
2018-02-03T02:05:36.502Z,99119.33
2018-02-03T02:08:04.051Z,99119.33
2018-02-03T02:10:31.651Z,99101.86
2018-02-03T02:12:59.238Z,99097.12
2018-02-03T02:15:26.781Z,99089.25
2018-02-03T02:17:54.358Z,99089.73
2018-02-03T02:20:21.925Z,99087.98
2018-02-03T02:22:49.567Z,99092.02
2018-02-03T02:25:17.105Z,99086.72
2018-02-03T02:27:44.681Z,99092.06
2018-02-03T02:30:12.234Z,99091.23
2018-02-03T02:32:39.821Z,99109.69
2018-02-03T02:35:07.364Z,99104.91
2018-02-03T02:37:34.903Z,99115.42
2018-02-03T02:40:02.495Z,99098.81
2018-02-03T02:42:30.094Z,99104.97
2018-02-03T02:44:57.625Z,99107.55
2018-02-03T02:47:25.206Z,99104.07
2018-02-03T02:49:52.783Z,99094.41
2018-02-03T02:52:21.247Z,99097.03
2018-02-03T02:54:48.791Z,99090.47
2018-02-03T02:57:16.326Z,99100.08
2018-02-03T02:59:43.918Z,99096.19
2018-02-03T03:02:11.489Z,99104.44
2018-02-03T03:04:39.037Z,99100.55
2018-02-03T03:07:06.675Z,99096.75
2018-02-03T03:09:34.215Z,99110.34
2018-02-03T03:12:01.797Z,99114.23
2018-02-03T03:14:29.330Z,99114.71
2018-02-03T03:16:56.916Z,99107.77
2018-02-03T03:19:24.507Z,99110.86
2018-02-03T03:21:52.051Z,99102.57
2018-02-03T03:24:19.589Z,99100.88
2018-02-03T03:26:47.223Z,99106.56
2018-02-03T03:29:14.798Z,99091.28
2018-02-03T03:31:42.334Z,99092.55
2018-02-03T03:34:09.979Z,99106.56
2018-02-03T03:36:37.548Z,99110.96
2018-02-03T03:39:05.218Z,99106.23
2018-02-03T03:41:32.753Z,99105.38
2018-02-03T03:44:00.326Z,99108.84
2018-02-03T03:46:27.930Z,99109.78
2018-02-03T03:48:55.566Z,99104.97
2018-02-03T03:51:23.307Z,99114.58
2018-02-03T03:53:50.882Z,99120.33
2018-02-03T03:56:18.422Z,99120.33
2018-02-03T03:58:45.997Z,99123.84
2018-02-03T04:01:13.530Z,99118.23
2018-02-03T04:03:41.097Z,99109.92
2018-02-03T04:06:08.625Z,99103.47
2018-02-03T04:08:36.235Z,99106.66
2018-02-03T04:11:03.778Z,99114.61
2018-02-03T04:13:31.398Z,99123.28
2018-02-03T04:15:59.035Z,99118.88
2018-02-03T04:18:26.610Z,99121.97
2018-02-03T04:20:54.164Z,99108.47
2018-02-03T04:23:21.721Z,99115.45
2018-02-03T04:25:49.290Z,99091.14
2018-02-03T04:28:16.831Z,99097.27
2018-02-03T04:30:44.434Z,99105.56
2018-02-03T04:33:11.965Z,99095.98
2018-02-03T04:35:39.537Z,99083.28
2018-02-03T04:38:07.068Z,99085.99
2018-02-03T04:40:34.655Z,99075.03
2018-02-03T04:43:02.296Z,99067.59
2018-02-03T04:45:29.895Z,99055.83
2018-02-03T04:47:57.465Z,99068.89
2018-02-03T04:50:25.063Z,99074.56
2018-02-03T04:52:52.674Z,99068.86
2018-02-03T04:55:20.220Z,99079.39
2018-02-03T04:57:48.129Z,99061.88
2018-02-03T05:00:15.753Z,99080.66
2018-02-03T05:02:43.346Z,99068.86
2018-02-03T05:05:10.928Z,99068.86
2018-02-03T05:07:38.469Z,99065.38
2018-02-03T05:10:06.041Z,99041.78
2018-02-03T05:12:33.580Z,99048.80
2018-02-03T05:15:02.022Z,99042.29
2018-02-03T05:17:29.553Z,99042.33
2018-02-03T05:19:57.086Z,99040.17
2018-02-03T05:22:24.667Z,99050.16
2018-02-03T05:24:52.311Z,99049.31
2018-02-03T05:27:19.883Z,99048.90
2018-02-03T05:29:47.454Z,99034.02
2018-02-03T05:32:14.999Z,98994.72
2018-02-03T05:34:43.449Z,99010.87
2018-02-03T05:37:11.032Z,99029.42
2018-02-03T05:39:38.593Z,99010.55
2018-02-03T05:42:06.171Z,99009.23
2018-02-03T05:44:34.257Z,99015.38
2018-02-03T05:47:01.870Z,99004.47
2018-02-03T05:49:29.471Z,99002.77
2018-02-03T05:51:57.021Z,99014.06
2018-02-03T05:54:24.663Z,98984.33
2018-02-03T05:56:52.262Z,99023.30
2018-02-03T05:59:19.846Z,99020.99
2018-02-03T06:01:47.451Z,99016.55
2018-02-03T06:04:14.994Z,99027.08
2018-02-03T06:06:42.590Z,99014.81
2018-02-03T06:09:10.195Z,98993.81
2018-02-03T06:11:37.730Z,99037.66
2018-02-03T06:14:05.323Z,99046.33
2018-02-03T06:16:32.911Z,99028.38
2018-02-03T06:19:00.463Z,99037.58
2018-02-03T06:21:28.047Z,99037.46
2018-02-03T06:23:55.573Z,99024.23
2018-02-03T06:26:23.175Z,99013.56
2018-02-03T06:28:50.709Z,99034.83
2018-02-03T06:31:18.455Z,99017.18
2018-02-03T06:33:46.136Z,99029.42
2018-02-03T06:36:13.705Z,98977.09
2018-02-03T06:38:41.243Z,98988.48
2018-02-03T06:41:08.827Z,98967.12
2018-02-03T06:43:36.375Z,98962.34
2018-02-03T06:46:03.968Z,98975.97
2018-02-03T06:48:31.574Z,98977.70
2018-02-03T06:50:59.219Z,98973.72
2018-02-03T06:53:26.766Z,98987.73
2018-02-03T06:55:54.467Z,98980.66
2018-02-03T06:58:21.990Z,98979.63
2018-02-03T07:00:49.627Z,98973.84
2018-02-03T07:03:19.195Z,98957.59
2018-02-03T07:05:46.770Z,98975.43
2018-02-03T07:08:14.337Z,98982.27
2018-02-03T07:10:41.910Z,98992.34
2018-02-03T07:13:10.278Z,98990.98
2018-02-03T07:15:37.821Z,98984.73
2018-02-03T07:18:05.549Z,98973.68
2018-02-03T07:20:33.168Z,98981.07
2018-02-03T07:23:01.311Z,98961.39
2018-02-03T07:25:28.888Z,98982.76
2018-02-03T07:27:56.916Z,98952.53
2018-02-03T07:30:24.579Z,98958.30
2018-02-03T07:32:53.329Z,98961.39
2018-02-03T07:35:22.119Z,98960.88
2018-02-03T07:37:49.658Z,98935.20
2018-02-03T07:40:17.198Z,98930.42
2018-02-03T07:42:44.783Z,98940.08
2018-02-03T07:45:12.487Z,98949.36
2018-02-03T07:47:40.090Z,98934.98
2018-02-03T07:50:07.621Z,98928.33
2018-02-03T07:52:35.198Z,98918.61
2018-02-03T07:55:02.737Z,98925.22
2018-02-03T07:57:30.385Z,98902.39
2018-02-03T07:59:58.043Z,98922.39
2018-02-03T08:02:26.347Z,98918.30
2018-02-03T08:04:53.947Z,98930.89
2018-02-03T08:07:21.491Z,98880.30
2018-02-03T08:09:49.075Z,98907.66
2018-02-03T08:12:16.680Z,98903.45
2018-02-03T08:14:44.289Z,98889.19
2018-02-03T08:17:12.363Z,98927.05
2018-02-03T08:19:39.933Z,98917.59
2018-02-03T08:22:08.346Z,98878.88
2018-02-03T08:24:35.956Z,98880.34
2018-02-03T08:27:04.326Z,98887.05
2018-02-03T08:29:31.872Z,98874.77
2018-02-03T08:31:59.582Z,98888.77
2018-02-03T08:34:27.169Z,98883.39
2018-02-03T08:36:54.701Z,98867.55
2018-02-03T08:39:22.382Z,98855.02
2018-02-03T08:41:49.923Z,98840.39
2018-02-03T08:44:17.498Z,98839.27
2018-02-03T08:46:45.139Z,98858.87
2018-02-03T08:49:12.687Z,98845.67
2018-02-03T08:51:40.268Z,98840.34
2018-02-03T08:54:07.866Z,98834.91
2018-02-03T08:56:35.524Z,98836.55
2018-02-03T08:59:04.923Z,98847.89
2018-02-03T09:01:32.459Z,98828.55
2018-02-03T09:03:59.999Z,98821.92
2018-02-03T09:06:27.571Z,98820.18
2018-02-03T09:08:55.106Z,98825.07
2018-02-03T09:11:22.686Z,98811.52
2018-02-03T09:13:50.292Z,98808.52
2018-02-03T09:16:17.934Z,98803.80
2018-02-03T09:18:45.587Z,98804.69
2018-02-03T09:21:13.186Z,98813.41
2018-02-03T09:23:40.781Z,98800.27
2018-02-03T09:26:08.309Z,98788.86
2018-02-03T09:28:35.855Z,98788.39
2018-02-03T09:31:03.444Z,98797.53
2018-02-03T09:33:30.991Z,98786.42
2018-02-03T09:35:58.566Z,98780.71
2018-02-03T09:38:26.111Z,98779.86
2018-02-03T09:40:54.490Z,98769.72
2018-02-03T09:43:22.039Z,98774.52
2018-02-03T09:45:50.493Z,98767.11
2018-02-03T09:48:18.069Z,98741.63
2018-02-03T09:50:46.612Z,98736.13
2018-02-03T09:53:14.166Z,98724.08
2018-02-03T09:55:41.771Z,98718.79
2018-02-03T09:58:09.452Z,98689.47
2018-02-03T10:00:37.059Z,98685.95
2018-02-03T10:03:04.603Z,98695.34
2018-02-03T10:05:33.224Z,98691.84
2018-02-03T10:08:00.764Z,98680.71
2018-02-03T10:10:28.419Z,98667.05
2018-02-03T10:12:56.063Z,98657.31
2018-02-03T10:15:23.601Z,98655.00
2018-02-03T10:17:51.199Z,98647.05
2018-02-03T10:20:18.735Z,98648.23
2018-02-03T10:22:46.311Z,98632.20
2018-02-03T10:25:14.574Z,98616.75
2018-02-03T10:27:42.150Z,98602.34
2018-02-03T10:30:09.695Z,98604.97
2018-02-03T10:32:37.356Z,98598.68
2018-02-03T10:35:05.015Z,98602.91
2018-02-03T10:37:32.550Z,98612.34
2018-02-03T10:40:01.007Z,98611.36
2018-02-03T10:42:28.607Z,98591.45
2018-02-03T10:44:56.181Z,98580.74
2018-02-03T10:47:23.718Z,98596.30
2018-02-03T10:49:51.297Z,98589.91
2018-02-03T10:52:18.829Z,98570.68
2018-02-03T10:54:46.393Z,98567.56
2018-02-03T10:57:14.069Z,98560.23
2018-02-03T10:59:41.622Z,98553.03
2018-02-03T11:02:09.223Z,98537.52
2018-02-03T11:04:36.802Z,98539.27
2018-02-03T11:07:04.378Z,98535.45
2018-02-03T11:09:33.946Z,98527.41
2018-02-03T11:12:01.631Z,98515.03
2018-02-03T11:14:29.204Z,98520.11
2018-02-03T11:16:56.738Z,98530.70
2018-02-03T11:19:24.394Z,98513.63
2018-02-03T11:21:51.936Z,98510.08
2018-02-03T11:24:19.529Z,98527.91
2018-02-03T11:26:47.129Z,98519.86
2018-02-03T11:29:14.657Z,98511.86
2018-02-03T11:31:42.303Z,98509.11
2018-02-03T11:34:09.842Z,98515.40
2018-02-03T11:36:37.449Z,98522.14
2018-02-03T11:39:05.196Z,98519.09
2018-02-03T11:41:32.791Z,98510.28
2018-02-03T11:44:01.147Z,98505.91
2018-02-03T11:46:28.678Z,98526.16
2018-02-03T11:48:56.261Z,98536.91
2018-02-03T11:51:23.808Z,98518.60
2018-02-03T11:53:51.377Z,98507.42
2018-02-03T11:56:19.918Z,98533.67
2018-02-03T11:58:47.555Z,98555.38
2018-02-03T12:01:15.201Z,98545.81
2018-02-03T12:03:42.882Z,98536.64
2018-02-03T12:06:10.429Z,98520.02
2018-02-03T12:08:38.103Z,98509.23
2018-02-03T12:11:05.682Z,98516.75
2018-02-03T12:13:33.262Z,98500.42
2018-02-03T12:16:00.807Z,98507.07
2018-02-03T12:18:28.386Z,98491.55
2018-02-03T12:20:55.930Z,98502.03
2018-02-03T12:23:24.344Z,98490.14
2018-02-03T12:25:51.953Z,98483.48
2018-02-03T12:28:20.310Z,98474.67
2018-02-03T12:30:49.679Z,98476.34
2018-02-03T12:33:17.273Z,98466.12
2018-02-03T12:35:45.589Z,98435.61
2018-02-03T12:38:13.126Z,98433.17
2018-02-03T12:40:40.672Z,98418.48
2018-02-03T12:43:08.246Z,98426.59
2018-02-03T12:45:35.843Z,98417.56
2018-02-03T12:48:03.430Z,98434.61
2018-02-03T12:50:31.970Z,98418.15
2018-02-03T12:52:59.549Z,98427.05
2018-02-03T12:55:27.119Z,98420.94
2018-02-03T12:57:54.772Z,98424.28
2018-02-03T13:00:22.309Z,98437.63
2018-02-03T13:02:49.901Z,98429.52
2018-02-03T13:05:17.491Z,98417.35
2018-02-03T13:07:45.079Z,98431.08
2018-02-03T13:10:13.437Z,98424.61
2018-02-03T13:12:41.832Z,98408.34
2018-02-03T13:15:09.410Z,98433.58
2018-02-03T13:17:36.956Z,98434.57
2018-02-03T13:20:04.546Z,98424.98
2018-02-03T13:22:32.093Z,98430.47
2018-02-03T13:25:00.629Z,98401.20
2018-02-03T13:27:28.215Z,98423.74
2018-02-03T13:29:55.820Z,98427.85
2018-02-03T13:32:23.400Z,98409.07
2018-02-03T13:34:50.943Z,98415.72
2018-02-03T13:37:18.556Z,98414.05
2018-02-03T13:39:46.130Z,98409.77
2018-02-03T13:42:13.671Z,98405.09
2018-02-03T13:44:41.250Z,98402.26
2018-02-03T13:47:08.814Z,98395.88
2018-02-03T13:49:36.351Z,98375.02
2018-02-03T13:52:03.929Z,98358.94
2018-02-03T13:54:31.596Z,98350.31
2018-02-03T13:56:59.142Z,98333.75
2018-02-03T13:59:26.721Z,98321.12
2018-02-03T14:01:54.263Z,98311.09
2018-02-03T14:04:21.845Z,98293.05
2018-02-03T14:06:50.082Z,98268.92
2018-02-03T14:09:18.526Z,98262.27
2018-02-03T14:11:46.108Z,98254.42
2018-02-03T14:14:13.647Z,98255.27
2018-02-03T14:16:41.525Z,98265.77
2018-02-03T14:19:09.066Z,98259.62
2018-02-03T14:21:36.594Z,98270.14
2018-02-03T14:24:10.790Z,98285.06
2018-02-03T14:26:38.320Z,98306.14
2018-02-03T14:29:05.902Z,98330.80
2018-02-03T14:31:33.551Z,98332.66
2018-02-03T14:34:01.688Z,98327.59
2018-02-03T14:36:29.339Z,98336.05
2018-02-03T14:38:56.866Z,98340.22
2018-02-03T14:41:24.487Z,98333.30
2018-02-03T14:43:52.087Z,98352.34
2018-02-03T14:46:19.622Z,98330.17
2018-02-03T14:48:47.177Z,98363.73
2018-02-03T14:51:15.689Z,98355.15
2018-02-03T14:53:43.830Z,98362.72
2018-02-03T14:56:11.411Z,98360.75
2018-02-03T14:58:39.071Z,98376.65
2018-02-03T15:01:06.691Z,98374.62
2018-02-03T15:03:34.217Z,98371.30
2018-02-03T15:06:01.790Z,98383.23
2018-02-03T15:08:29.746Z,98387.40
2018-02-03T15:10:57.330Z,98388.90
2018-02-03T15:13:25.626Z,98374.41
2018-02-03T15:15:53.222Z,98390.72
2018-02-03T15:18:22.026Z,98382.88
2018-02-03T15:20:49.910Z,98426.48
2018-02-03T15:23:17.443Z,98425.70
2018-02-03T15:25:45.022Z,98428.41
2018-02-03T15:28:13.590Z,98416.16
2018-02-03T15:30:42.026Z,98410.53
2018-02-03T15:33:09.628Z,98401.46
2018-02-03T15:35:37.181Z,98407.27
2018-02-03T15:38:04.878Z,98395.95
2018-02-03T15:40:32.427Z,98395.56
2018-02-03T15:43:00.087Z,98400.00
2018-02-03T15:45:27.627Z,98400.05
2018-02-03T15:47:56.003Z,98393.83
2018-02-03T15:50:24.227Z,98390.30
2018-02-03T15:52:51.786Z,98386.14
2018-02-03T15:55:19.773Z,98397.99
2018-02-03T15:57:47.424Z,98391.41
2018-02-03T16:00:15.767Z,98383.45
2018-02-03T16:02:43.303Z,98393.05
2018-02-03T16:05:10.991Z,98389.95
2018-02-03T16:07:39.163Z,98372.77
2018-02-03T16:10:08.414Z,98362.56
2018-02-03T16:12:36.859Z,98351.06
2018-02-03T16:15:04.399Z,98331.25
2018-02-03T16:17:32.052Z,98313.77
2018-02-03T16:19:59.839Z,98316.47
2018-02-03T16:22:27.439Z,98318.20
2018-02-03T16:24:54.978Z,98340.05
2018-02-03T16:27:23.409Z,98345.02
2018-02-03T16:29:50.991Z,98345.80
2018-02-03T16:32:19.521Z,98346.58
2018-02-03T16:34:47.680Z,98338.23
2018-02-03T16:37:15.818Z,98358.48
2018-02-03T16:39:44.175Z,98350.95
2018-02-03T16:42:11.822Z,98376.87
2018-02-03T16:44:40.332Z,98389.47
2018-02-03T16:47:07.997Z,98388.92
2018-02-03T16:49:36.716Z,98395.06
2018-02-03T16:52:04.338Z,98374.77
2018-02-03T16:54:32.491Z,98381.02
2018-02-03T16:57:00.321Z,98362.98
2018-02-03T16:59:29.630Z,98376.09
2018-02-03T17:01:58.585Z,98366.87
2018-02-03T17:04:26.495Z,98368.66
2018-02-03T17:06:55.388Z,98380.04
2018-02-03T17:09:23.544Z,98387.10
2018-02-03T17:11:51.930Z,98378.66
2018-02-03T17:14:19.498Z,98389.20
2018-02-03T17:16:47.536Z,98408.47
2018-02-03T17:19:15.110Z,98398.33
2018-02-03T17:21:44.555Z,98374.08
2018-02-03T17:24:13.105Z,98362.28
2018-02-03T17:26:40.860Z,98375.06
2018-02-03T17:29:08.685Z,98370.06
2018-02-03T17:31:36.209Z,98346.42
2018-02-03T17:34:03.791Z,98384.97
2018-02-03T17:36:37.337Z,98366.78
2018-02-03T17:39:06.524Z,98398.94
2018-02-03T17:41:34.155Z,98434.11
2018-02-03T17:44:02.307Z,98374.36
2018-02-03T17:46:35.381Z,98377.91
2018-02-03T17:49:02.968Z,98372.52
2018-02-03T17:51:31.113Z,98384.20
2018-02-03T17:53:59.074Z,98399.17
2018-02-03T17:56:32.238Z,98413.66
2018-02-03T17:58:59.774Z,98410.22
2018-02-03T18:01:27.350Z,98414.13
2018-02-03T18:03:55.148Z,98425.84
2018-02-03T18:06:28.982Z,98413.91
2018-02-03T18:08:56.786Z,98422.89
2018-02-03T18:11:24.945Z,98412.44
2018-02-03T18:13:52.478Z,98408.00
2018-02-03T18:16:20.010Z,98365.61
2018-02-03T18:18:48.245Z,98379.63
2018-02-03T18:21:16.094Z,98391.68
2018-02-03T18:23:43.644Z,98382.94
2018-02-03T18:26:12.247Z,98376.09
2018-02-03T18:28:39.826Z,98361.85
2018-02-03T18:31:08.967Z,98373.31
2018-02-03T18:33:37.239Z,98354.24
2018-02-03T18:36:04.774Z,98388.86
2018-02-03T18:38:32.628Z,98395.39
2018-02-03T18:41:00.209Z,98371.48
2018-02-03T18:43:27.798Z,98356.81
2018-02-03T18:45:55.343Z,98372.63
2018-02-03T18:48:23.594Z,98357.52
2018-02-03T18:50:51.167Z,98361.21
2018-02-03T18:53:19.953Z,98336.11
2018-02-03T18:55:47.994Z,98399.28
2018-02-03T18:58:15.555Z,98378.33
2018-02-03T19:00:43.174Z,98331.61
2018-02-03T19:03:10.717Z,98300.45
2018-02-03T19:05:38.258Z,98314.75
2018-02-03T19:08:06.591Z,98306.16
2018-02-03T19:10:34.135Z,98318.93
2018-02-03T19:13:01.738Z,98340.19
2018-02-03T19:15:30.877Z,98371.84
2018-02-03T19:17:58.852Z,98332.06
2018-02-03T19:20:26.394Z,98359.05
2018-02-03T19:22:53.968Z,98355.58
2018-02-03T19:25:22.416Z,98332.71
2018-02-03T19:27:50.299Z,98377.35
2018-02-03T19:30:17.835Z,98382.70
2018-02-03T19:32:45.420Z,98375.57
2018-02-03T19:35:15.325Z,98381.38
2018-02-03T19:37:43.911Z,98367.72
2018-02-03T19:40:11.761Z,98392.92
2018-02-03T19:42:40.208Z,98363.92
2018-02-03T19:45:07.777Z,98387.82
2018-02-03T19:47:35.313Z,98375.02
2018-02-03T19:50:03.165Z,98377.38
2018-02-03T19:52:33.701Z,98350.13
2018-02-03T19:55:01.287Z,98361.06
2018-02-03T19:57:30.087Z,98389.98
2018-02-03T19:59:57.918Z,98351.70
2018-02-03T20:02:26.110Z,98347.81
2018-02-03T20:04:56.710Z,98372.75
2018-02-03T20:07:24.237Z,98339.23
2018-02-03T20:09:52.694Z,98369.73
2018-02-03T20:12:20.293Z,98325.78
2018-02-03T20:14:49.493Z,98343.12
2018-02-03T20:17:17.225Z,98326.11
2018-02-03T20:19:44.790Z,98305.14
2018-02-03T20:22:12.651Z,98338.45
2018-02-03T20:24:40.221Z,98349.64
2018-02-03T20:27:08.504Z,98319.19
2018-02-03T20:29:36.079Z,98302.61
2018-02-03T20:32:04.044Z,98321.25
2018-02-03T20:34:32.403Z,98276.19
2018-02-03T20:36:59.975Z,98270.44
2018-02-03T20:39:28.268Z,98265.72
2018-02-03T20:41:57.357Z,98238.16
2018-02-03T20:44:25.316Z,98252.12
2018-02-03T20:46:52.846Z,98286.58
2018-02-03T20:49:20.479Z,98260.89
2018-02-03T20:51:50.045Z,98258.06
2018-02-03T20:54:17.583Z,98268.73
2018-02-03T20:56:45.118Z,98266.90
2018-02-03T20:59:12.719Z,98257.89
2018-02-03T21:01:40.250Z,98246.07
2018-02-03T21:04:08.391Z,98261.37
2018-02-03T21:06:36.450Z,98261.21
2018-02-03T21:09:05.186Z,98261.34
2018-02-03T21:11:32.870Z,98279.23
2018-02-03T21:14:00.450Z,98276.41
2018-02-03T21:16:28.827Z,98271.17
2018-02-03T21:18:56.550Z,98259.19
2018-02-03T21:21:25.489Z,98262.66
2018-02-03T21:23:54.380Z,98238.23
2018-02-03T21:26:22.231Z,98287.45
2018-02-03T21:28:50.686Z,98299.13
2018-02-03T21:31:19.053Z,98300.28
2018-02-03T21:33:47.525Z,98299.66
2018-02-03T21:36:15.108Z,98282.99
2018-02-03T21:38:43.825Z,98266.37
2018-02-03T21:41:11.406Z,98237.27
2018-02-03T21:43:39.106Z,98240.03
2018-02-03T21:46:06.921Z,98244.48
2018-02-03T21:48:34.455Z,98244.50
2018-02-03T21:51:02.036Z,98235.95
2018-02-03T21:53:29.614Z,98268.27
2018-02-03T21:55:57.182Z,98250.27
2018-02-03T21:58:24.714Z,98270.73
2018-02-03T22:00:52.301Z,98289.96
2018-02-03T22:03:20.521Z,98303.06
2018-02-03T22:05:48.856Z,98331.25
2018-02-03T22:08:17.377Z,98317.92
2018-02-03T22:10:45.838Z,98309.99
2018-02-03T22:13:14.889Z,98338.16
2018-02-03T22:15:44.063Z,98310.28
2018-02-03T22:18:12.388Z,98298.48
2018-02-03T22:20:41.562Z,98315.84
2018-02-03T22:23:11.384Z,98306.54
2018-02-03T22:25:40.326Z,98302.48
2018-02-03T22:28:09.639Z,98315.04
2018-02-03T22:30:38.298Z,98310.52
2018-02-03T22:33:06.964Z,98309.48
2018-02-03T22:35:35.656Z,98298.59
2018-02-03T22:38:04.881Z,98292.90
2018-02-03T22:40:33.831Z,98306.09
2018-02-03T22:43:02.943Z,98287.97
2018-02-03T22:45:31.660Z,98277.39
2018-02-03T22:48:00.499Z,98277.91
2018-02-03T22:50:29.672Z,98287.58
2018-02-03T22:52:57.984Z,98290.92
2018-02-03T22:55:26.475Z,98293.62
2018-02-03T22:57:55.058Z,98279.42
2018-02-03T23:00:24.055Z,98264.50
2018-02-03T23:02:58.379Z,98287.13
2018-02-03T23:05:28.221Z,98280.12
2018-02-03T23:07:56.493Z,98270.13
2018-02-03T23:10:25.581Z,98284.48
2018-02-03T23:12:54.037Z,98299.23
2018-02-03T23:15:22.241Z,98288.94
2018-02-03T23:17:50.227Z,98295.45
2018-02-03T23:20:19.106Z,98300.38
2018-02-03T23:22:47.740Z,98301.60
2018-02-03T23:25:16.755Z,98288.52
2018-02-03T23:27:45.724Z,98289.61
2018-02-03T23:30:13.702Z,98285.20
2018-02-03T23:32:41.770Z,98277.69
2018-02-03T23:35:10.506Z,98267.30
2018-02-03T23:37:38.561Z,98253.71
2018-02-03T23:40:06.919Z,98235.39
2018-02-03T23:42:34.977Z,98270.09
2018-02-03T23:45:03.152Z,98265.35
2018-02-03T23:47:31.217Z,98278.17
2018-02-03T23:49:59.078Z,98285.20
2018-02-03T23:52:28.022Z,98290.92
2018-02-03T23:54:56.928Z,98290.05
2018-02-03T23:57:24.948Z,98280.63
2018-02-03T23:59:52.988Z,98300.31
